Etusivu
METAR-TAF:

METAR-TAF

Lentoasemat :

Tulcán, Ecuador

Leveyspiiri: 00-48-34N, Pituuspiiri: 077-42-29W, korkeus merenpinnasta: 2941 m

Tämänhetkinen sää

Tämä raportti tehtiin 16 tuntia ja 8 minuuttia sitten, kello 21.00 UTC
Tuuli 8 kn idästä
Lämpötila 19°C
Kosteus 56%
Ilmanpaine 1028 hPa
Näkyvyys 10 km tai enemmän
Hajanaisia pilviä 2300 ft:n korkeudessa

METAR: SETU 012100Z 09008KT 9999 SCT023 19/10 Q1028

Aika: 08:08 (13:08 UTC)


TAF: puuttuu

Säähavainnot ja -ennusteet yli 4000 lentoasemalta (METAR- ja TAF-raportit).

Käytössä olevat sääasemat on merkitty karttaan keltaisilla ja punaisilla pisteillä.

Aseta hiiri pisteen päälle nähdäksesi sääaseman nimen.

Klikkaa sitten nähdäksesi säähavainnot ja -ennusteet.

Kartan vaihtaminen: klikkaa mustalla rastilla varustettuja vihreitä pisteitä, niin voit zoomata sisään; viivalla varustettua vihreää pistettä, niin voit zoomata ulos tai vihreitä nuolia, niin pääset viereisille kartoille.


METAR-TAF: